Time;durP1;ratioP1;P1;durP2;ratioP2;P2;SDS_P1;SDS_P2;PMS_P1;PMS_P2;Temp;Humidity;BMP_temperature;BMP_pressure;BME280_temperature;BME280_humidity;BME280_pressure;Samples;Min_cycle;Max_cycle;Signal;HPM_P1;HPM_P2
2022/03/13 00:02:04;;;;;;;8.43;6.80;;;;;;;;;;5068644;28;24419;-51
2022/03/13 00:04:29;;;;;;;7.90;6.80;;;;;;;;;;5068672;28;24514;-50
2022/03/13 00:06:56;;;;;;;8.03;7.10;;;;;;;;;;5067588;28;24488;-51
2022/03/13 00:09:22;;;;;;;8.32;6.60;;;;;;;;;;5068293;28;24410;-51
2022/03/13 00:11:51;;;;;;;8.20;7.07;;;;;;;;;;5068732;28;24489;-51
2022/03/13 00:14:19;;;;;;;8.07;6.30;;;;;;;;;;5067691;28;24457;-51
2022/03/13 00:16:44;;;;;;;9.80;6.77;;;;;;;;;;5068073;28;24410;-52
2022/03/13 00:19:10;;;;;;;7.28;6.57;;;;;;;;;;5068242;28;24464;-51
2022/03/13 00:21:35;;;;;;;9.67;6.50;;;;;;;;;;5068451;28;24426;-52
2022/03/13 00:24:01;;;;;;;8.90;6.60;;;;;;;;;;5067410;28;24421;-52
2022/03/13 00:26:26;;;;;;;9.70;6.78;;;;;;;;;;5068612;28;24502;-52
2022/03/13 00:28:51;;;;;;;7.33;6.57;;;;;;;;;;5066591;28;24502;-51
2022/03/13 00:31:16;;;;;;;8.27;6.70;;;;;;;;;;5067448;28;24830;-52
2022/03/13 00:33:42;;;;;;;9.10;6.70;;;;;;;;;;5066995;28;24426;-51
2022/03/13 00:36:07;;;;;;;7.50;5.90;;;;;;;;;;5067957;28;25222;-51
2022/03/13 00:38:32;;;;;;;6.90;6.30;;;;;;;;;;5067929;28;24800;-51
2022/03/13 00:40:58;;;;;;;7.00;6.40;;;;;;;;;;5068404;28;25058;-51
2022/03/13 00:43:24;;;;;;;7.80;6.63;;;;;;;;;;5067361;28;24441;-51
2022/03/13 00:45:50;;;;;;;6.95;6.25;;;;;;;;;;5067453;28;24967;-51
2022/03/13 00:48:15;;;;;;;9.00;6.65;;;;;;;;;;5066683;28;24418;-52
2022/03/13 00:50:41;;;;;;;7.67;6.60;;;;;;;;;;5067953;28;24804;-52
2022/03/13 00:53:06;;;;;;;8.45;6.60;;;;;;;;;;5068161;28;24827;-52
2022/03/13 00:55:31;;;;;;;7.50;6.30;;;;;;;;;;5067762;28;24406;-51
2022/03/13 00:57:57;;;;;;;8.90;6.40;;;;;;;;;;5067083;28;24896;-52
2022/03/13 01:00:22;;;;;;;7.80;6.50;;;;;;;;;;5067362;28;24438;-52
2022/03/13 01:02:47;;;;;;;7.07;6.20;;;;;;;;;;5067568;28;25009;-52
2022/03/13 01:05:19;;;;;;;7.32;6.20;;;;;;;;;;5066649;28;24514;-52
2022/03/13 01:07:44;;;;;;;7.50;6.20;;;;;;;;;;5067061;28;24418;-51
2022/03/13 01:10:10;;;;;;;8.55;6.78;;;;;;;;;;5066508;28;24435;-51
2022/03/13 01:12:35;;;;;;;8.57;6.30;;;;;;;;;;5067241;28;24433;-51
2022/03/13 01:15:00;;;;;;;7.50;6.20;;;;;;;;;;5066686;28;24465;-53
2022/03/13 01:17:25;;;;;;;8.33;6.70;;;;;;;;;;5067036;28;24414;-52
2022/03/13 01:19:50;;;;;;;7.57;6.63;;;;;;;;;;5065970;28;24807;-51
2022/03/13 01:22:16;;;;;;;7.97;6.33;;;;;;;;;;5065800;28;24415;-52
2022/03/13 01:24:45;;;;;;;7.03;5.90;;;;;;;;;;5067073;28;24988;-52
2022/03/13 01:27:20;;;;;;;7.05;6.35;;;;;;;;;;5066416;28;24430;-51
2022/03/13 01:29:45;;;;;;;7.97;6.28;;;;;;;;;;5066059;28;24430;-53
2022/03/13 01:32:12;;;;;;;6.70;6.00;;;;;;;;;;5066275;28;24445;-52
2022/03/13 01:34:42;;;;;;;7.47;6.25;;;;;;;;;;5067010;28;24411;-51
2022/03/13 01:37:11;;;;;;;7.03;6.30;;;;;;;;;;5065558;28;24487;-52
2022/03/13 01:39:36;;;;;;;9.07;6.40;;;;;;;;;;5065934;28;25004;-52
2022/03/13 01:42:01;;;;;;;7.43;6.10;;;;;;;;;;5065861;28;24767;-51
2022/03/13 01:44:27;;;;;;;7.50;6.43;;;;;;;;;;5066121;28;24415;-52
2022/03/13 01:46:52;;;;;;;8.80;6.70;;;;;;;;;;5066514;28;24494;-52
2022/03/13 01:49:18;;;;;;;7.30;6.30;;;;;;;;;;5066381;28;24773;-52
2022/03/13 01:51:43;;;;;;;7.25;6.40;;;;;;;;;;5065995;28;24522;-52
2022/03/13 01:54:09;;;;;;;6.70;6.10;;;;;;;;;;5066407;28;24417;-52
2022/03/13 01:56:37;;;;;;;7.93;6.45;;;;;;;;;;5066083;28;24407;-52
2022/03/13 01:59:02;;;;;;;7.72;6.45;;;;;;;;;;5066652;28;24805;-53
2022/03/13 02:01:28;;;;;;;9.20;6.20;;;;;;;;;;5066460;28;24419;-52
2022/03/13 02:03:54;;;;;;;6.90;6.20;;;;;;;;;;5066452;28;24488;-52
2022/03/13 02:06:20;;;;;;;7.75;6.50;;;;;;;;;;5066757;28;24415;-52
2022/03/13 02:08:45;;;;;;;6.95;5.90;;;;;;;;;;5065711;28;24418;-52
2022/03/13 02:11:14;;;;;;;6.80;6.10;;;;;;;;;;5066307;28;24430;-51
2022/03/13 02:13:39;;;;;;;7.30;6.30;;;;;;;;;;5065530;28;24434;-52
2022/03/13 02:16:05;;;;;;;7.07;6.40;;;;;;;;;;5065893;28;24465;-51
2022/03/13 02:18:30;;;;;;;7.00;6.30;;;;;;;;;;5066573;28;25055;-51
2022/03/13 02:20:55;;;;;;;7.33;6.60;;;;;;;;;;5066328;28;24457;-51
2022/03/13 02:23:20;;;;;;;7.60;6.50;;;;;;;;;;5066973;28;24415;-52
2022/03/13 02:25:49;;;;;;;7.57;6.20;;;;;;;;;;5066068;28;24532;-52
2022/03/13 02:28:14;;;;;;;7.60;6.68;;;;;;;;;;5066150;28;24422;-52
2022/03/13 02:30:40;;;;;;;7.33;6.50;;;;;;;;;;5065574;28;25188;-52
2022/03/13 02:33:05;;;;;;;7.60;6.20;;;;;;;;;;5065614;28;24415;-51
2022/03/13 02:35:30;;;;;;;6.93;6.20;;;;;;;;;;5066008;28;24411;-52
2022/03/13 02:37:55;;;;;;;7.77;6.47;;;;;;;;;;5066582;28;24411;-52
2022/03/13 02:40:22;;;;;;;7.73;6.50;;;;;;;;;;5065563;28;24437;-52
2022/03/13 02:42:48;;;;;;;6.85;6.22;;;;;;;;;;5065839;28;24536;-52
2022/03/13 02:45:25;;;;;;;6.70;6.00;;;;;;;;;;5065493;28;25024;-52
2022/03/13 02:47:50;;;;;;;7.22;5.95;;;;;;;;;;5056248;28;24519;-52
2022/03/13 02:50:16;;;;;;;6.70;5.90;;;;;;;;;;5065555;28;25004;-52
2022/03/13 02:52:41;;;;;;;6.70;6.10;;;;;;;;;;5066374;28;24529;-51
2022/03/13 02:55:06;;;;;;;7.85;6.20;;;;;;;;;;5064530;28;24838;-52
2022/03/13 02:57:35;;;;;;;6.50;5.90;;;;;;;;;;5066636;28;24472;-52
2022/03/13 03:00:00;;;;;;;8.68;6.25;;;;;;;;;;5065543;28;24414;-52
2022/03/13 03:02:25;;;;;;;7.45;6.10;;;;;;;;;;5066162;28;24518;-51
2022/03/13 03:04:53;;;;;;;7.20;6.50;;;;;;;;;;5066008;28;24433;-52
2022/03/13 03:07:18;;;;;;;7.13;6.30;;;;;;;;;;5065689;28;24998;-51
2022/03/13 03:09:44;;;;;;;7.57;6.77;;;;;;;;;;5065605;28;24473;-52
2022/03/13 03:12:10;;;;;;;7.00;6.30;;;;;;;;;;5066083;28;24426;-51
2022/03/13 03:14:35;;;;;;;9.50;6.60;;;;;;;;;;5065446;28;24419;-51
2022/03/13 03:17:00;;;;;;;7.57;6.77;;;;;;;;;;5065509;28;24414;-51
2022/03/13 03:19:26;;;;;;;8.50;6.83;;;;;;;;;;5065402;28;25046;-52
2022/03/13 03:21:52;;;;;;;7.10;6.40;;;;;;;;;;5065182;28;24411;-51
2022/03/13 03:24:18;;;;;;;7.30;6.60;;;;;;;;;;5060368;28;24434;-52
2022/03/13 03:26:44;;;;;;;7.40;6.60;;;;;;;;;;5069090;28;24418;-52
2022/03/13 03:29:09;;;;;;;6.88;6.28;;;;;;;;;;5068594;28;24426;-52
2022/03/13 03:31:45;;;;;;;8.60;6.97;;;;;;;;;;5069077;28;24431;-51
2022/03/13 03:34:11;;;;;;;7.43;6.63;;;;;;;;;;5068817;28;24426;-51
2022/03/13 03:36:44;;;;;;;7.03;6.32;;;;;;;;;;5068769;28;24415;-51
2022/03/13 03:39:10;;;;;;;7.90;7.10;;;;;;;;;;5069184;28;24411;-51
2022/03/13 03:41:35;;;;;;;7.93;6.50;;;;;;;;;;5068492;28;24585;-51
2022/03/13 03:44:00;;;;;;;7.43;6.73;;;;;;;;;;5068788;28;24419;-52
2022/03/13 03:46:26;;;;;;;7.37;6.57;;;;;;;;;;5069310;28;24415;-52
2022/03/13 03:48:51;;;;;;;7.63;6.93;;;;;;;;;;5068383;28;24491;-51
2022/03/13 03:51:16;;;;;;;7.70;6.90;;;;;;;;;;5069782;28;25020;-51
2022/03/13 03:53:41;;;;;;;8.07;6.77;;;;;;;;;;5068979;28;24407;-52
2022/03/13 03:56:07;;;;;;;7.40;6.50;;;;;;;;;;5068163;28;24983;-51
2022/03/13 03:58:32;;;;;;;7.28;6.57;;;;;;;;;;5068049;28;24446;-52
2022/03/13 04:00:57;;;;;;;7.90;6.90;;;;;;;;;;5068715;28;24414;-52
2022/03/13 04:03:22;;;;;;;7.60;6.90;;;;;;;;;;5067857;28;24467;-52
2022/03/13 04:05:47;;;;;;;7.63;6.50;;;;;;;;;;5068939;28;24419;-52
2022/03/13 04:08:12;;;;;;;8.53;7.20;;;;;;;;;;5068079;28;24431;-52
2022/03/13 04:10:38;;;;;;;7.47;6.53;;;;;;;;;;5068372;28;24564;-52
2022/03/13 04:13:03;;;;;;;7.50;6.70;;;;;;;;;;5068343;28;24492;-52
2022/03/13 04:15:29;;;;;;;8.50;6.73;;;;;;;;;;5068350;28;24514;-52
2022/03/13 04:17:55;;;;;;;8.05;6.80;;;;;;;;;;5068207;28;24426;-52
2022/03/13 04:20:21;;;;;;;7.80;7.00;;;;;;;;;;5068030;28;24419;-51
2022/03/13 04:22:46;;;;;;;7.47;6.67;;;;;;;;;;5068877;28;24510;-52
2022/03/13 04:25:11;;;;;;;7.70;7.00;;;;;;;;;;5067963;28;24496;-52
2022/03/13 04:27:36;;;;;;;7.20;6.50;;;;;;;;;;5068274;28;24805;-51
2022/03/13 04:30:02;;;;;;;7.60;6.90;;;;;;;;;;5067180;28;24425;-51
2022/03/13 04:32:27;;;;;;;7.70;7.00;;;;;;;;;;5068121;28;24422;-52
2022/03/13 04:34:52;;;;;;;7.63;6.93;;;;;;;;;;5065121;28;24784;-51
2022/03/13 04:37:18;;;;;;;8.80;7.30;;;;;;;;;;5066581;28;24984;-52
2022/03/13 04:39:43;;;;;;;7.95;7.00;;;;;;;;;;5068053;28;24421;-52
2022/03/13 04:42:08;;;;;;;7.53;6.82;;;;;;;;;;5067104;28;24435;-51
2022/03/13 04:44:34;;;;;;;8.30;7.40;;;;;;;;;;5068674;28;24496;-51
2022/03/13 04:46:59;;;;;;;8.00;6.70;;;;;;;;;;5067147;28;24422;-51
2022/03/13 04:49:25;;;;;;;8.45;7.65;;;;;;;;;;5067821;28;24415;-51
2022/03/13 04:51:50;;;;;;;7.93;7.13;;;;;;;;;;5067414;28;25025;-52
2022/03/13 04:54:16;;;;;;;7.90;7.07;;;;;;;;;;5066954;28;24414;-51
2022/03/13 04:56:41;;;;;;;8.55;7.75;;;;;;;;;;5066916;28;24411;-51
2022/03/13 04:59:07;;;;;;;8.48;6.82;;;;;;;;;;5067809;28;24488;-52
2022/03/13 05:01:32;;;;;;;8.18;7.38;;;;;;;;;;5067071;28;25071;-51
2022/03/13 05:03:57;;;;;;;8.43;7.50;;;;;;;;;;5067329;28;24422;-52
2022/03/13 05:06:22;;;;;;;8.83;7.50;;;;;;;;;;5066754;28;24554;-51
2022/03/13 05:08:49;;;;;;;8.32;7.20;;;;;;;;;;5066845;28;25019;-52
2022/03/13 05:11:15;;;;;;;8.15;7.35;;;;;;;;;;5066252;28;25023;-52
2022/03/13 05:13:40;;;;;;;8.07;7.28;;;;;;;;;;5067145;28;24905;-53
2022/03/13 05:16:05;;;;;;;8.00;7.20;;;;;;;;;;5065603;28;24473;-52
2022/03/13 05:18:31;;;;;;;8.93;7.40;;;;;;;;;;5067101;28;24418;-52
2022/03/13 05:20:57;;;;;;;9.10;7.70;;;;;;;;;;5068209;28;24441;-52
2022/03/13 05:23:22;;;;;;;8.07;7.27;;;;;;;;;;5064213;28;24773;-52
2022/03/13 05:25:47;;;;;;;8.43;7.63;;;;;;;;;;5068447;28;24686;-52
2022/03/13 05:28:12;;;;;;;8.80;7.90;;;;;;;;;;5073919;28;24427;-52
2022/03/13 05:30:39;;;;;;;7.90;7.10;;;;;;;;;;5061970;28;24521;-52
2022/03/13 05:33:04;;;;;;;8.05;7.25;;;;;;;;;;5064976;28;24484;-52
2022/03/13 05:35:30;;;;;;;7.50;6.80;;;;;;;;;;5065391;28;24511;-51
2022/03/13 05:37:55;;;;;;;7.93;7.13;;;;;;;;;;5063786;28;24438;-53
2022/03/13 05:40:21;;;;;;;7.93;7.23;;;;;;;;;;5061571;28;24410;-52
2022/03/13 05:42:47;;;;;;;7.93;7.13;;;;;;;;;;5065081;28;24430;-54
2022/03/13 05:45:13;;;;;;;7.60;6.90;;;;;;;;;;5064361;28;25015;-51
2022/03/13 05:47:49;;;;;;;8.70;7.75;;;;;;;;;;5065018;28;24438;-51
2022/03/13 05:50:15;;;;;;;8.20;7.40;;;;;;;;;;5063575;28;24415;-52
2022/03/13 05:52:41;;;;;;;8.65;7.38;;;;;;;;;;5060251;28;24519;-52
2022/03/13 05:55:06;;;;;;;8.15;7.35;;;;;;;;;;5062991;28;24407;-52
2022/03/13 05:57:31;;;;;;;8.40;7.30;;;;;;;;;;5063437;28;24425;-51
2022/03/13 05:59:57;;;;;;;8.47;7.57;;;;;;;;;;5060769;28;24415;-51
2022/03/13 06:02:22;;;;;;;8.00;7.00;;;;;;;;;;5064181;28;24429;-52
2022/03/13 06:04:47;;;;;;;7.50;6.70;;;;;;;;;;5065207;28;24953;-52
2022/03/13 06:07:13;;;;;;;7.77;6.97;;;;;;;;;;5064110;28;24449;-52
2022/03/13 06:09:38;;;;;;;8.73;7.70;;;;;;;;;;5063255;28;25007;-52
2022/03/13 06:12:03;;;;;;;7.60;6.80;;;;;;;;;;5064332;28;24765;-52
2022/03/13 06:14:28;;;;;;;7.70;6.77;;;;;;;;;;5064662;28;24499;-52
2022/03/13 06:16:53;;;;;;;8.20;7.40;;;;;;;;;;5060602;28;24468;-52
2022/03/13 06:19:19;;;;;;;8.33;7.43;;;;;;;;;;5062181;28;24422;-51
2022/03/13 06:21:46;;;;;;;7.83;7.03;;;;;;;;;;5064712;28;24437;-51
2022/03/13 06:24:11;;;;;;;9.57;7.22;;;;;;;;;;5063760;28;24418;-52
2022/03/13 06:26:36;;;;;;;7.40;6.70;;;;;;;;;;5061392;28;24505;-52
2022/03/13 06:29:02;;;;;;;8.80;7.60;;;;;;;;;;5061913;28;24426;-52
2022/03/13 06:31:27;;;;;;;8.53;7.37;;;;;;;;;;5060042;28;24438;-52
2022/03/13 06:33:52;;;;;;;9.15;7.25;;;;;;;;;;5057039;28;24411;-52
2022/03/13 06:36:17;;;;;;;8.20;7.25;;;;;;;;;;5057236;28;24430;-52
2022/03/13 06:38:42;;;;;;;8.63;7.82;;;;;;;;;;5062381;28;24506;-51
2022/03/13 06:41:07;;;;;;;8.20;7.40;;;;;;;;;;5058925;28;24518;-51
2022/03/13 06:43:34;;;;;;;8.60;7.30;;;;;;;;;;5064522;28;24434;-52
2022/03/13 06:45:59;;;;;;;10.10;7.63;;;;;;;;;;5062641;28;24426;-52
2022/03/13 06:48:26;;;;;;;9.90;8.07;;;;;;;;;;5058248;28;24573;-52
2022/03/13 06:50:51;;;;;;;9.00;7.70;;;;;;;;;;5062689;28;24418;-52
2022/03/13 06:53:16;;;;;;;8.37;7.47;;;;;;;;;;5064730;28;24418;-52
2022/03/13 06:55:41;;;;;;;9.10;8.20;;;;;;;;;;5065792;28;24964;-52
2022/03/13 06:58:07;;;;;;;11.70;7.90;;;;;;;;;;5066265;28;25015;-51
2022/03/13 07:00:32;;;;;;;9.80;7.90;;;;;;;;;;5069170;28;25123;-52
2022/03/13 07:02:57;;;;;;;10.60;8.27;;;;;;;;;;5068113;28;24421;-52
2022/03/13 07:05:24;;;;;;;8.60;7.72;;;;;;;;;;5069819;28;24418;-51
2022/03/13 07:07:49;;;;;;;12.00;8.40;;;;;;;;;;5066941;28;24585;-53
2022/03/13 07:10:14;;;;;;;8.40;7.60;;;;;;;;;;5065594;28;24445;-52
2022/03/13 07:12:40;;;;;;;9.57;8.57;;;;;;;;;;5068368;28;25005;-52
2022/03/13 07:15:10;;;;;;;9.60;8.30;;;;;;;;;;5068959;28;25003;-53
2022/03/13 07:17:35;;;;;;;9.98;7.85;;;;;;;;;;5068925;28;24935;-52
2022/03/13 07:20:01;;;;;;;8.95;8.05;;;;;;;;;;5069541;28;24801;-52
2022/03/13 07:22:26;;;;;;;9.73;8.00;;;;;;;;;;5068844;28;24774;-52
2022/03/13 07:24:51;;;;;;;8.67;7.77;;;;;;;;;;5068701;28;24425;-53
2022/03/13 07:27:16;;;;;;;9.60;8.20;;;;;;;;;;5068354;28;24426;-52
2022/03/13 07:29:42;;;;;;;10.00;8.20;;;;;;;;;;5068846;28;24415;-52
2022/03/13 07:32:07;;;;;;;9.40;8.20;;;;;;;;;;5069489;28;24479;-53
2022/03/13 07:34:32;;;;;;;10.82;8.30;;;;;;;;;;5069139;28;24422;-52
2022/03/13 07:36:57;;;;;;;9.40;8.40;;;;;;;;;;5063870;28;24426;-52
2022/03/13 07:39:22;;;;;;;9.85;8.15;;;;;;;;;;5066619;28;24571;-52
2022/03/13 07:41:48;;;;;;;9.53;7.83;;;;;;;;;;5066304;28;24443;-53
2022/03/13 07:44:13;;;;;;;8.37;7.57;;;;;;;;;;5064062;28;24411;-52
2022/03/13 07:46:38;;;;;;;9.30;8.40;;;;;;;;;;5067602;28;24423;-53
2022/03/13 07:49:03;;;;;;;9.48;8.35;;;;;;;;;;5067336;28;24509;-53
2022/03/13 07:51:29;;;;;;;10.25;8.20;;;;;;;;;;5065057;28;25038;-53
2022/03/13 07:53:54;;;;;;;9.20;8.20;;;;;;;;;;5069057;28;24402;-52
2022/03/13 07:56:19;;;;;;;11.00;8.20;;;;;;;;;;5068712;28;24808;-53
2022/03/13 07:58:45;;;;;;;9.60;8.30;;;;;;;;;;5060008;28;24490;-53
2022/03/13 08:01:10;;;;;;;9.35;8.35;;;;;;;;;;5062274;28;24458;-52
2022/03/13 08:03:40;;;;;;;8.97;8.07;;;;;;;;;;5056767;28;24504;-52
2022/03/13 08:06:05;;;;;;;10.95;8.05;;;;;;;;;;5066797;28;24472;-53
2022/03/13 08:08:30;;;;;;;9.00;8.20;;;;;;;;;;5065028;28;24419;-53
2022/03/13 08:10:56;;;;;;;9.00;8.10;;;;;;;;;;5063750;28;24975;-52
2022/03/13 08:13:22;;;;;;;9.97;8.30;;;;;;;;;;5065132;28;24450;-52
2022/03/13 08:15:47;;;;;;;9.02;8.10;;;;;;;;;;5063625;28;24951;-53
2022/03/13 08:18:13;;;;;;;9.00;8.10;;;;;;;;;;5063555;28;24510;-57
2022/03/13 08:20:38;;;;;;;8.63;7.72;;;;;;;;;;5066691;28;24402;-53
2022/03/13 08:23:03;;;;;;;9.50;8.20;;;;;;;;;;5065406;28;24848;-52
2022/03/13 08:25:29;;;;;;;9.00;8.20;;;;;;;;;;5062108;28;24506;-53
2022/03/13 08:27:55;;;;;;;9.60;8.60;;;;;;;;;;5065387;28;25027;-52
2022/03/13 08:30:20;;;;;;;8.65;7.85;;;;;;;;;;5046915;28;24423;-53
2022/03/13 08:32:45;;;;;;;8.60;7.70;;;;;;;;;;5047754;28;24499;-52
2022/03/13 08:35:11;;;;;;;8.38;7.57;;;;;;;;;;5055681;28;24526;-53
2022/03/13 08:37:37;;;;;;;9.07;7.97;;;;;;;;;;5067022;28;24420;-53
2022/03/13 08:40:05;;;;;;;8.82;7.93;;;;;;;;;;5066484;28;24490;-52
2022/03/13 08:42:31;;;;;;;9.57;8.23;;;;;;;;;;5063094;28;24439;-52
2022/03/13 08:44:57;;;;;;;8.85;7.80;;;;;;;;;;5046996;28;24509;-52
2022/03/13 08:47:22;;;;;;;9.03;8.07;;;;;;;;;;5066621;28;24498;-53
2022/03/13 08:49:50;;;;;;;9.93;7.77;;;;;;;;;;5066384;28;24533;-54
2022/03/13 08:52:16;;;;;;;8.35;7.45;;;;;;;;;;5062431;28;24463;-52
2022/03/13 08:54:41;;;;;;;8.52;7.55;;;;;;;;;;5046310;28;24427;-52
2022/03/13 08:57:07;;;;;;;8.40;7.50;;;;;;;;;;5051280;28;24988;-52
2022/03/13 08:59:36;;;;;;;8.47;7.40;;;;;;;;;;5066180;28;24402;-51
2022/03/13 09:02:01;;;;;;;8.27;7.47;;;;;;;;;;5067749;28;24379;-51
2022/03/13 09:04:26;;;;;;;8.73;7.93;;;;;;;;;;5067739;28;24410;-51
2022/03/13 09:06:52;;;;;;;8.73;7.80;;;;;;;;;;5067761;28;24925;-51
2022/03/13 09:09:19;;;;;;;8.97;7.47;;;;;;;;;;5067633;28;24386;-52
2022/03/13 09:11:45;;;;;;;9.07;8.13;;;;;;;;;;5067646;28;24560;-52
2022/03/13 09:14:11;;;;;;;10.53;7.50;;;;;;;;;;5067240;28;24837;-52
2022/03/13 09:16:38;;;;;;;7.83;6.90;;;;;;;;;;5066791;28;24933;-53
2022/03/13 09:19:03;;;;;;;8.63;7.30;;;;;;;;;;5067527;28;24940;-53
2022/03/13 09:21:31;;;;;;;8.95;7.85;;;;;;;;;;5067196;28;24403;-53
2022/03/13 09:23:56;;;;;;;8.45;7.65;;;;;;;;;;5066832;28;24415;-55
2022/03/13 09:26:21;;;;;;;9.20;8.20;;;;;;;;;;5067604;28;24409;-52
2022/03/13 09:28:46;;;;;;;8.40;7.50;;;;;;;;;;5066981;28;24898;-53
2022/03/13 09:31:11;;;;;;;8.60;7.13;;;;;;;;;;5066957;28;24406;-53
2022/03/13 09:33:37;;;;;;;7.82;7.03;;;;;;;;;;5066792;28;24465;-53
2022/03/13 09:36:02;;;;;;;9.40;7.40;;;;;;;;;;5066786;28;24407;-51
2022/03/13 09:38:27;;;;;;;7.70;6.80;;;;;;;;;;5066693;28;24481;-51
2022/03/13 09:40:53;;;;;;;8.30;7.40;;;;;;;;;;5067231;28;24398;-51
2022/03/13 09:43:20;;;;;;;7.70;7.00;;;;;;;;;;5066506;28;24438;-51
2022/03/13 09:45:46;;;;;;;7.47;6.63;;;;;;;;;;5066458;28;24429;-51
2022/03/13 09:48:15;;;;;;;8.73;7.10;;;;;;;;;;5067238;28;24940;-51
2022/03/13 09:50:41;;;;;;;8.00;6.75;;;;;;;;;;5066893;28;24419;-51
2022/03/13 09:53:06;;;;;;;7.77;6.97;;;;;;;;;;5066946;28;24450;-51
2022/03/13 09:55:31;;;;;;;8.00;6.90;;;;;;;;;;5066701;28;24407;-51
2022/03/13 09:57:56;;;;;;;7.30;6.60;;;;;;;;;;5066629;28;24464;-51
2022/03/13 10:00:21;;;;;;;7.93;7.13;;;;;;;;;;5067223;28;24750;-52
2022/03/13 10:02:47;;;;;;;8.70;6.80;;;;;;;;;;5066965;28;24402;-52
2022/03/13 10:05:14;;;;;;;8.35;6.82;;;;;;;;;;5066510;28;24486;-51
2022/03/13 10:07:56;;;;;;;8.32;7.25;;;;;;;;;;5066440;28;24391;-52
2022/03/13 10:10:22;;;;;;;7.40;6.70;;;;;;;;;;5066696;28;24510;-52
2022/03/13 10:12:47;;;;;;;7.30;6.60;;;;;;;;;;5066827;28;24425;-54
2022/03/13 10:15:13;;;;;;;7.70;6.60;;;;;;;;;;5066816;28;24942;-50
2022/03/13 10:17:39;;;;;;;8.00;7.00;;;;;;;;;;5066247;28;24456;-51
2022/03/13 10:20:11;;;;;;;7.80;6.77;;;;;;;;;;5066440;28;24757;-51
2022/03/13 10:22:37;;;;;;;7.63;6.75;;;;;;;;;;5066195;28;24406;-50
2022/03/13 10:25:02;;;;;;;7.80;7.00;;;;;;;;;;5066851;28;24460;-53
2022/03/13 10:27:27;;;;;;;7.60;6.90;;;;;;;;;;5065978;28;24419;-52
2022/03/13 10:29:52;;;;;;;7.13;6.43;;;;;;;;;;5066177;28;24386;-51
2022/03/13 10:32:19;;;;;;;7.93;6.90;;;;;;;;;;5066678;28;24402;-52
2022/03/13 10:34:52;;;;;;;7.20;6.50;;;;;;;;;;5068746;28;25328;-51
2022/03/13 10:37:31;;;;;;;8.27;6.88;;;;;;;;;;5069904;28;24429;-52
2022/03/13 10:40:07;;;;;;;7.40;6.70;;;;;;;;;;5070613;28;24415;-51
2022/03/13 10:42:32;;;;;;;7.68;6.97;;;;;;;;;;5069872;28;24418;-51
2022/03/13 10:45:03;;;;;;;7.88;7.05;;;;;;;;;;5070886;28;25268;-52
2022/03/13 10:47:31;;;;;;;8.20;7.40;;;;;;;;;;5070019;28;24419;-51
2022/03/13 10:49:56;;;;;;;7.40;6.70;;;;;;;;;;5070320;28;24419;-52
2022/03/13 10:52:32;;;;;;;7.88;7.07;;;;;;;;;;5070181;28;24390;-52
2022/03/13 10:55:00;;;;;;;7.27;6.57;;;;;;;;;;5070056;28;24418;-52
2022/03/13 10:57:25;;;;;;;7.75;6.80;;;;;;;;;;5063122;28;24923;-52
2022/03/13 11:00:08;;;;;;;8.20;7.40;;;;;;;;;;5068249;28;24457;-52
2022/03/13 11:02:33;;;;;;;7.60;6.80;;;;;;;;;;5069736;28;24406;-52
2022/03/13 11:05:00;;;;;;;7.20;6.50;;;;;;;;;;5070040;28;24387;-52
2022/03/13 11:07:28;;;;;;;8.00;7.20;;;;;;;;;;5069715;28;24395;-51
2022/03/13 11:09:54;;;;;;;7.30;6.60;;;;;;;;;;5069753;28;24605;-52
2022/03/13 11:12:20;;;;;;;7.60;6.30;;;;;;;;;;5072078;28;24586;-52
2022/03/13 11:14:48;;;;;;;7.75;6.95;;;;;;;;;;5068774;28;24438;-52
2022/03/13 11:17:14;;;;;;;7.28;6.53;;;;;;;;;;5067965;28;24450;-52
2022/03/13 11:19:39;;;;;;;7.75;6.95;;;;;;;;;;5071596;28;24980;-52
2022/03/13 11:22:05;;;;;;;7.93;6.40;;;;;;;;;;5069649;28;24418;-51
2022/03/13 11:24:31;;;;;;;7.72;6.90;;;;;;;;;;5072755;28;24655;-53
2022/03/13 11:26:56;;;;;;;7.70;7.00;;;;;;;;;;5066426;28;25410;-52
2022/03/13 11:29:40;;;;;;;7.77;7.07;;;;;;;;;;5068756;28;24418;-51
2022/03/13 11:32:25;;;;;;;7.90;7.20;;;;;;;;;;5069207;28;24575;-52
2022/03/13 11:35:09;;;;;;;7.72;6.93;;;;;;;;;;5068166;28;24414;-52
2022/03/13 11:37:34;;;;;;;7.78;6.85;;;;;;;;;;5068810;28;24976;-52
2022/03/13 11:40:00;;;;;;;7.60;6.90;;;;;;;;;;5069297;28;24419;-52
2022/03/13 11:42:25;;;;;;;7.70;6.90;;;;;;;;;;5068529;28;24891;-51
2022/03/13 11:44:50;;;;;;;7.80;7.00;;;;;;;;;;5067811;28;24510;-52
2022/03/13 11:47:21;;;;;;;8.10;7.40;;;;;;;;;;5068942;28;24979;-51
2022/03/13 11:49:46;;;;;;;7.97;7.10;;;;;;;;;;5068375;28;24399;-51
2022/03/13 11:52:20;;;;;;;7.90;7.10;;;;;;;;;;5068229;28;24453;-52
2022/03/13 11:54:52;;;;;;;9.27;7.18;;;;;;;;;;5059192;28;24488;-52
2022/03/13 11:57:18;;;;;;;7.80;7.00;;;;;;;;;;5068884;28;24414;-51
2022/03/13 11:59:48;;;;;;;8.02;7.30;;;;;;;;;;5068451;28;24497;-51
2022/03/13 12:02:34;;;;;;;7.40;6.70;;;;;;;;;;5068366;28;24972;-51
2022/03/13 12:05:17;;;;;;;9.48;7.40;;;;;;;;;;5068083;28;24429;-51
2022/03/13 12:07:56;;;;;;;7.90;7.10;;;;;;;;;;5068239;28;24511;-52
2022/03/13 12:10:47;;;;;;;7.97;6.90;;;;;;;;;;5068419;28;24552;-52
2022/03/13 12:13:20;;;;;;;7.90;7.10;;;;;;;;;;5063163;28;24419;-51
2022/03/13 12:15:45;;;;;;;8.88;7.50;;;;;;;;;;5066570;28;24422;-52
2022/03/13 12:18:17;;;;;;;7.83;7.13;;;;;;;;;;5070047;28;24419;-52
2022/03/13 12:20:43;;;;;;;7.53;6.60;;;;;;;;;;5069604;28;24484;-52
2022/03/13 12:23:09;;;;;;;8.15;7.00;;;;;;;;;;5068585;28;24506;-52
2022/03/13 12:25:34;;;;;;;7.20;6.50;;;;;;;;;;5071154;28;24617;-52
2022/03/13 12:28:01;;;;;;;7.13;6.47;;;;;;;;;;5061231;28;24528;-51
2022/03/13 12:30:27;;;;;;;7.47;6.70;;;;;;;;;;5064909;28;24454;-52
2022/03/13 12:32:59;;;;;;;7.57;6.88;;;;;;;;;;5078695;28;24411;-52
2022/03/13 12:35:25;;;;;;;8.13;7.43;;;;;;;;;;5068192;28;24422;-52
2022/03/13 12:38:00;;;;;;;7.50;6.70;;;;;;;;;;5076011;28;25096;-52
2022/03/13 12:40:26;;;;;;;7.20;6.50;;;;;;;;;;5068174;28;24497;-51
2022/03/13 12:42:52;;;;;;;7.40;6.50;;;;;;;;;;5070306;28;24465;-52
2022/03/13 12:45:18;;;;;;;7.07;6.43;;;;;;;;;;5071469;28;24437;-52
2022/03/13 12:47:47;;;;;;;7.20;6.50;;;;;;;;;;5069729;28;24956;-52
2022/03/13 12:50:13;;;;;;;7.15;6.45;;;;;;;;;;5066924;28;24517;-51
2022/03/13 12:52:39;;;;;;;8.25;7.45;;;;;;;;;;5064616;28;24526;-52
2022/03/13 12:55:08;;;;;;;7.40;6.70;;;;;;;;;;5060358;28;24921;-51
2022/03/13 12:57:34;;;;;;;8.10;7.30;;;;;;;;;;5058159;28;24964;-51
2022/03/13 13:00:00;;;;;;;7.50;6.68;;;;;;;;;;5064255;28;24983;-51
2022/03/13 13:02:26;;;;;;;7.70;6.90;;;;;;;;;;5059130;28;25066;-52
2022/03/13 13:04:51;;;;;;;7.60;6.90;;;;;;;;;;5061661;28;24445;-52
2022/03/13 13:07:18;;;;;;;7.60;6.78;;;;;;;;;;5061999;28;24426;-52
2022/03/13 13:09:44;;;;;;;9.10;6.45;;;;;;;;;;5064807;28;24440;-51
2022/03/13 13:12:10;;;;;;;7.85;6.85;;;;;;;;;;5056328;28;24415;-52
2022/03/13 13:14:36;;;;;;;7.40;6.70;;;;;;;;;;5058397;28;24557;-52
2022/03/13 13:17:09;;;;;;;7.53;6.80;;;;;;;;;;5062725;28;24588;-52
2022/03/13 13:19:38;;;;;;;7.40;6.70;;;;;;;;;;5062395;28;24777;-52
2022/03/13 13:22:03;;;;;;;6.95;6.25;;;;;;;;;;5065472;28;24475;-52
2022/03/13 13:24:35;;;;;;;8.30;7.50;;;;;;;;;;5069569;28;24513;-53
2022/03/13 13:27:07;;;;;;;7.10;6.38;;;;;;;;;;5065048;28;24422;-52
2022/03/13 13:29:35;;;;;;;7.25;6.55;;;;;;;;;;5068198;28;24655;-53
2022/03/13 13:32:19;;;;;;;7.37;6.40;;;;;;;;;;5064755;28;24438;-54
2022/03/13 13:35:00;;;;;;;7.57;6.80;;;;;;;;;;5059657;28;24521;-52
2022/03/13 13:37:25;;;;;;;7.13;6.43;;;;;;;;;;5075423;28;24484;-52
2022/03/13 13:40:00;;;;;;;7.68;6.88;;;;;;;;;;5064822;28;24407;-52
2022/03/13 13:42:25;;;;;;;7.30;6.60;;;;;;;;;;5065931;28;24462;-52
2022/03/13 13:44:50;;;;;;;8.20;7.40;;;;;;;;;;5066588;28;24407;-52
2022/03/13 13:47:22;;;;;;;7.87;6.77;;;;;;;;;;5048168;28;25016;-55
2022/03/13 13:49:47;;;;;;;7.15;6.45;;;;;;;;;;5065581;28;24403;-51
2022/03/13 13:52:12;;;;;;;7.30;6.50;;;;;;;;;;5066608;28;24426;-51
2022/03/13 13:54:37;;;;;;;7.32;6.50;;;;;;;;;;5066999;28;24935;-51
2022/03/13 13:57:03;;;;;;;7.80;6.80;;;;;;;;;;5066078;28;24473;-51
2022/03/13 13:59:39;;;;;;;6.50;5.90;;;;;;;;;;5065886;28;24423;-51
2022/03/13 14:02:18;;;;;;;9.20;6.83;;;;;;;;;;5066288;28;24471;-51
2022/03/13 14:04:47;;;;;;;6.90;6.20;;;;;;;;;;5066624;28;24986;-51
2022/03/13 14:07:13;;;;;;;6.85;5.95;;;;;;;;;;5064444;28;24431;-51
2022/03/13 14:09:38;;;;;;;7.50;6.43;;;;;;;;;;5065878;28;24425;-52
2022/03/13 14:12:04;;;;;;;6.20;5.60;;;;;;;;;;5066452;28;24446;-51
2022/03/13 14:14:29;;;;;;;6.83;6.13;;;;;;;;;;5066795;28;24446;-52
2022/03/13 14:16:55;;;;;;;6.50;5.90;;;;;;;;;;5065629;28;24426;-50
2022/03/13 14:19:21;;;;;;;7.07;6.28;;;;;;;;;;5063310;28;24429;-51
2022/03/13 14:21:47;;;;;;;7.00;6.30;;;;;;;;;;5066394;28;24564;-53
2022/03/13 14:24:12;;;;;;;6.03;5.45;;;;;;;;;;5066981;28;24481;-51
2022/03/13 14:26:38;;;;;;;7.10;6.40;;;;;;;;;;5065939;28;24785;-51
2022/03/13 14:29:04;;;;;;;6.80;6.13;;;;;;;;;;5065918;28;25232;-52
2022/03/13 14:31:29;;;;;;;6.95;6.35;;;;;;;;;;5066297;28;24492;-52
2022/03/13 14:33:54;;;;;;;7.53;6.40;;;;;;;;;;5065774;28;24792;-51
2022/03/13 14:36:20;;;;;;;7.10;6.30;;;;;;;;;;5065977;28;24407;-52
2022/03/13 14:38:48;;;;;;;6.37;5.80;;;;;;;;;;5065046;28;24441;-51
2022/03/13 14:41:18;;;;;;;7.00;6.30;;;;;;;;;;5066519;28;24402;-52